Time;durP1;ratioP1;P1;durP2;ratioP2;P2;SDS_P1;SDS_P2;PMS_P1;PMS_P2;Temp;Humidity;BMP_temperature;BMP_pressure;BME280_temperature;BME280_humidity;BME280_pressure;Samples;Min_cycle;Max_cycle;Signal;HPM_P1;HPM_P2
2023/06/22 00:01:23;;;;;;;10.70;5.10;;;;;;;;;;5007656;28;20524;-53
2023/06/22 00:03:51;;;;;;;9.00;4.23;;;;;;;;;;5024771;28;20041;-52
2023/06/22 00:06:18;;;;;;;10.52;4.78;;;;;;;;;;5015612;28;20594;-50
2023/06/22 00:08:47;;;;;;;12.20;4.80;;;;;;;;;;5016442;28;20045;-53
2023/06/22 00:11:15;;;;;;;10.65;4.88;;;;;;;;;;5000743;28;20152;-50
2023/06/22 00:13:43;;;;;;;13.98;5.05;;;;;;;;;;5021764;28;20056;-51
2023/06/22 00:16:11;;;;;;;12.43;5.20;;;;;;;;;;5020622;28;20044;-51
2023/06/22 00:18:39;;;;;;;11.63;4.78;;;;;;;;;;5014560;28;20056;-49
2023/06/22 00:21:06;;;;;;;13.60;5.80;;;;;;;;;;5013154;28;20041;-53
2023/06/22 00:23:34;;;;;;;11.85;6.03;;;;;;;;;;5020260;28;20041;-52
2023/06/22 00:26:04;;;;;;;16.48;5.80;;;;;;;;;;5015613;28;20091;-47
2023/06/22 00:28:32;;;;;;;12.20;5.27;;;;;;;;;;5021894;28;20041;-47
2023/06/22 00:31:00;;;;;;;13.43;5.80;;;;;;;;;;5005093;28;20049;-49
2023/06/22 00:33:28;;;;;;;11.50;5.65;;;;;;;;;;5024162;28;20045;-53
2023/06/22 00:35:56;;;;;;;11.18;5.63;;;;;;;;;;5003652;28;20063;-51
2023/06/22 00:38:24;;;;;;;12.45;5.50;;;;;;;;;;5030888;28;20119;-49
2023/06/22 00:40:51;;;;;;;17.17;6.63;;;;;;;;;;5010697;28;20217;-52
2023/06/22 00:43:21;;;;;;;13.60;6.38;;;;;;;;;;5022893;28;20065;-51
2023/06/22 00:45:48;;;;;;;12.63;6.72;;;;;;;;;;5015632;28;20064;-52
2023/06/22 00:48:16;;;;;;;14.75;6.22;;;;;;;;;;5022205;28;20037;-52
2023/06/22 00:50:44;;;;;;;13.80;7.07;;;;;;;;;;5014420;28;20044;-53
2023/06/22 00:53:13;;;;;;;16.77;8.00;;;;;;;;;;5024228;28;20049;-48
2023/06/22 00:55:43;;;;;;;14.75;7.63;;;;;;;;;;5013166;28;20387;-53
2023/06/22 00:58:11;;;;;;;15.45;6.88;;;;;;;;;;5021250;28;20398;-51
2023/06/22 01:00:41;;;;;;;17.10;6.80;;;;;;;;;;5021158;28;20056;-54
2023/06/22 01:03:12;;;;;;;13.23;7.20;;;;;;;;;;5013503;28;20044;-48
2023/06/22 01:05:40;;;;;;;16.53;7.50;;;;;;;;;;5007838;28;20156;-52
2023/06/22 01:08:16;;;;;;;17.52;7.45;;;;;;;;;;5027892;28;20044;-51
2023/06/22 01:10:49;;;;;;;18.88;7.40;;;;;;;;;;5021271;28;20045;-56
2023/06/22 01:13:22;;;;;;;16.55;7.53;;;;;;;;;;5029427;28;20053;-53
2023/06/22 01:15:56;;;;;;;15.98;7.38;;;;;;;;;;5030580;28;20045;-52
2023/06/22 01:18:25;;;;;;;16.87;7.53;;;;;;;;;;4999085;28;20043;-49
2023/06/22 01:20:55;;;;;;;14.32;7.07;;;;;;;;;;5025743;28;20041;-51
2023/06/22 01:23:29;;;;;;;15.75;7.18;;;;;;;;;;5029009;28;20784;-54
2023/06/22 01:26:05;;;;;;;15.15;6.97;;;;;;;;;;5019068;28;20530;-51
2023/06/22 01:28:48;;;;;;;15.30;7.90;;;;;;;;;;5027151;28;20616;-50
2023/06/22 01:31:17;;;;;;;20.43;7.50;;;;;;;;;;5014380;28;20514;-53
2023/06/22 01:33:47;;;;;;;20.90;7.53;;;;;;;;;;5022734;28;20052;-48
2023/06/22 01:36:15;;;;;;;21.65;7.55;;;;;;;;;;5011231;28;20118;-55
2023/06/22 01:38:44;;;;;;;19.48;7.93;;;;;;;;;;5020902;28;20052;-53
2023/06/22 01:41:12;;;;;;;17.25;7.78;;;;;;;;;;5016595;28;20041;-53
2023/06/22 01:43:40;;;;;;;17.40;7.80;;;;;;;;;;5027203;28;20486;-52
2023/06/22 01:46:09;;;;;;;15.50;7.30;;;;;;;;;;5010416;28;20410;-55
2023/06/22 01:48:37;;;;;;;16.98;7.40;;;;;;;;;;5009279;28;20088;-49
2023/06/22 01:51:06;;;;;;;19.02;7.57;;;;;;;;;;5019490;28;20089;-50
2023/06/22 01:53:34;;;;;;;16.98;8.07;;;;;;;;;;5018168;28;20544;-49
2023/06/22 01:56:01;;;;;;;16.47;7.73;;;;;;;;;;5024041;28;20056;-54
2023/06/22 01:58:31;;;;;;;16.63;7.88;;;;;;;;;;4990569;28;20407;-48
2023/06/22 02:01:03;;;;;;;17.33;7.75;;;;;;;;;;5021171;28;20455;-52
2023/06/22 02:03:36;;;;;;;17.90;8.10;;;;;;;;;;5022952;28;20050;-55
2023/06/22 02:06:05;;;;;;;17.27;8.00;;;;;;;;;;5019802;28;20057;-55
2023/06/22 02:08:36;;;;;;;20.63;8.77;;;;;;;;;;5014095;28;20514;-54
2023/06/22 02:11:04;;;;;;;19.67;8.85;;;;;;;;;;5016111;28;20128;-55
2023/06/22 02:13:33;;;;;;;23.42;8.93;;;;;;;;;;5004360;28;20143;-49
2023/06/22 02:16:01;;;;;;;17.75;9.10;;;;;;;;;;5029550;28;20407;-53
2023/06/22 02:18:29;;;;;;;21.80;9.80;;;;;;;;;;5013569;28;20055;-53
2023/06/22 02:20:59;;;;;;;19.53;9.30;;;;;;;;;;5024017;28;20041;-53
2023/06/22 02:23:26;;;;;;;21.50;8.70;;;;;;;;;;5018096;28;20064;-54
2023/06/22 02:25:54;;;;;;;21.73;9.55;;;;;;;;;;5022641;28;20490;-54
2023/06/22 02:28:22;;;;;;;20.45;9.68;;;;;;;;;;5015630;28;20509;-49
2023/06/22 02:30:51;;;;;;;22.23;10.45;;;;;;;;;;5021467;28;20133;-54
2023/06/22 02:33:19;;;;;;;21.50;10.67;;;;;;;;;;5018804;28;20051;-46
2023/06/22 02:35:48;;;;;;;25.10;9.93;;;;;;;;;;5016873;28;20071;-54
2023/06/22 02:38:19;;;;;;;22.17;10.23;;;;;;;;;;5013792;28;20045;-54
2023/06/22 02:40:46;;;;;;;22.92;10.95;;;;;;;;;;5020375;28;20063;-55
2023/06/22 02:43:14;;;;;;;27.50;10.70;;;;;;;;;;5016678;28;20064;-54
2023/06/22 02:45:42;;;;;;;23.53;10.20;;;;;;;;;;5018239;28;20522;-54
2023/06/22 02:48:10;;;;;;;25.40;10.75;;;;;;;;;;5028287;28;20045;-54
2023/06/22 02:50:38;;;;;;;22.75;10.15;;;;;;;;;;5010783;28;20048;-51
2023/06/22 02:53:06;;;;;;;23.63;11.02;;;;;;;;;;4992948;28;20041;-55
2023/06/22 02:55:35;;;;;;;23.80;10.25;;;;;;;;;;5028407;28;20045;-50
2023/06/22 02:58:04;;;;;;;26.90;10.97;;;;;;;;;;4996510;28;20045;-53
2023/06/22 03:00:32;;;;;;;26.92;11.43;;;;;;;;;;5019513;28;20041;-52
2023/06/22 03:03:00;;;;;;;25.67;10.73;;;;;;;;;;5021427;28;20040;-48
2023/06/22 03:05:28;;;;;;;25.98;11.77;;;;;;;;;;5014506;28;20037;-51
2023/06/22 03:07:56;;;;;;;24.27;11.52;;;;;;;;;;5015211;28;20042;-50
2023/06/22 03:10:23;;;;;;;27.67;11.63;;;;;;;;;;5020442;28;20064;-51
2023/06/22 03:12:53;;;;;;;24.35;11.23;;;;;;;;;;4991153;28;20038;-51
2023/06/22 03:15:20;;;;;;;22.45;11.07;;;;;;;;;;5031438;28;20049;-54
2023/06/22 03:17:49;;;;;;;24.05;11.27;;;;;;;;;;5012229;28;20033;-51
2023/06/22 03:20:19;;;;;;;25.00;10.82;;;;;;;;;;5007436;28;20145;-52
2023/06/22 03:22:48;;;;;;;27.37;12.83;;;;;;;;;;5018814;28;20041;-54
2023/06/22 03:25:16;;;;;;;24.60;11.30;;;;;;;;;;5019038;28;20040;-51
2023/06/22 03:27:44;;;;;;;29.25;12.18;;;;;;;;;;5005141;28;20132;-56
2023/06/22 03:30:13;;;;;;;30.50;12.25;;;;;;;;;;5028167;28;20036;-54
2023/06/22 03:32:42;;;;;;;28.90;12.63;;;;;;;;;;5010418;28;20042;-53
2023/06/22 03:35:12;;;;;;;31.83;12.73;;;;;;;;;;5024887;28;20083;-52
2023/06/22 03:37:40;;;;;;;30.98;12.45;;;;;;;;;;5007353;28;20040;-53
2023/06/22 03:40:08;;;;;;;30.60;13.20;;;;;;;;;;5016945;28;20071;-49
2023/06/22 03:42:36;;;;;;;28.10;12.48;;;;;;;;;;5010594;28;20048;-55
2023/06/22 03:45:05;;;;;;;30.80;13.80;;;;;;;;;;5016446;28;20048;-52
2023/06/22 03:47:34;;;;;;;27.00;12.13;;;;;;;;;;5016313;28;20052;-52
2023/06/22 03:50:03;;;;;;;28.17;12.85;;;;;;;;;;4962971;28;20029;-52
2023/06/22 03:52:31;;;;;;;28.83;13.55;;;;;;;;;;5015323;28;20041;-53
2023/06/22 03:54:59;;;;;;;29.40;13.15;;;;;;;;;;5010197;28;20047;-50
2023/06/22 03:57:26;;;;;;;31.20;13.93;;;;;;;;;;5015640;28;20083;-54
2023/06/22 03:59:55;;;;;;;33.37;14.40;;;;;;;;;;5016741;28;20049;-53
2023/06/22 04:02:22;;;;;;;29.27;13.70;;;;;;;;;;5011413;28;20048;-49
2023/06/22 04:04:52;;;;;;;31.15;13.85;;;;;;;;;;5027057;28;20359;-49
2023/06/22 04:07:20;;;;;;;39.25;15.57;;;;;;;;;;5010438;28;20467;-47
2023/06/22 04:09:48;;;;;;;33.20;13.45;;;;;;;;;;5006509;28;20042;-54
2023/06/22 04:12:16;;;;;;;27.53;13.37;;;;;;;;;;5018184;28;20051;-52
2023/06/22 04:14:45;;;;;;;30.13;13.82;;;;;;;;;;5015370;28;20052;-55
2023/06/22 04:17:14;;;;;;;27.95;14.13;;;;;;;;;;5025821;28;20123;-50
2023/06/22 04:19:42;;;;;;;27.40;13.90;;;;;;;;;;4997432;28;20052;-48
2023/06/22 04:22:11;;;;;;;28.95;13.80;;;;;;;;;;5018066;28;20060;-51
2023/06/22 04:24:39;;;;;;;27.40;13.43;;;;;;;;;;5012124;28;20040;-52
2023/06/22 04:27:07;;;;;;;32.47;13.50;;;;;;;;;;5024652;28;20051;-53
2023/06/22 04:29:35;;;;;;;27.58;12.65;;;;;;;;;;5010603;28;20349;-50
2023/06/22 04:32:05;;;;;;;27.55;13.07;;;;;;;;;;5019178;28;20041;-53
2023/06/22 04:34:33;;;;;;;25.83;13.32;;;;;;;;;;5016069;28;20033;-52
2023/06/22 04:37:00;;;;;;;31.90;13.20;;;;;;;;;;5024297;28;20037;-55
2023/06/22 04:39:29;;;;;;;26.58;12.52;;;;;;;;;;5007820;28;20052;-47
2023/06/22 04:42:00;;;;;;;31.88;13.00;;;;;;;;;;5021523;28;20049;-51
2023/06/22 04:44:28;;;;;;;30.88;13.73;;;;;;;;;;5005978;28;20048;-54
2023/06/22 04:46:59;;;;;;;27.88;12.70;;;;;;;;;;5021191;28;20036;-50
2023/06/22 04:49:32;;;;;;;28.77;12.93;;;;;;;;;;5022605;28;20032;-51
2023/06/22 04:52:00;;;;;;;27.33;12.07;;;;;;;;;;5023335;28;20612;-50
2023/06/22 04:54:32;;;;;;;26.48;12.18;;;;;;;;;;5022939;28;20045;-49
2023/06/22 04:57:00;;;;;;;27.63;12.68;;;;;;;;;;5016705;28;20052;-54
2023/06/22 04:59:30;;;;;;;24.13;12.18;;;;;;;;;;5019820;28;20068;-50
2023/06/22 05:01:58;;;;;;;31.93;13.87;;;;;;;;;;5022242;28;20045;-52
2023/06/22 05:04:27;;;;;;;26.27;12.13;;;;;;;;;;5025331;28;20044;-49
2023/06/22 05:06:55;;;;;;;25.73;12.20;;;;;;;;;;5022772;28;20055;-51
2023/06/22 05:09:24;;;;;;;27.67;12.18;;;;;;;;;;5022179;28;20045;-52
2023/06/22 05:11:54;;;;;;;26.58;12.48;;;;;;;;;;5026450;28;20041;-52
2023/06/22 05:14:21;;;;;;;28.87;12.73;;;;;;;;;;5019300;28;20129;-51
2023/06/22 05:16:51;;;;;;;27.10;12.82;;;;;;;;;;5021901;28;20040;-56
2023/06/22 05:19:19;;;;;;;29.17;12.60;;;;;;;;;;5021014;28;20041;-54
2023/06/22 05:21:47;;;;;;;28.58;13.65;;;;;;;;;;5023261;28;20041;-53
2023/06/22 05:24:14;;;;;;;24.30;12.15;;;;;;;;;;5019809;28;20037;-55
2023/06/22 05:26:44;;;;;;;28.43;12.60;;;;;;;;;;5025285;28;20365;-56
2023/06/22 05:29:13;;;;;;;26.30;12.32;;;;;;;;;;5022859;28;20044;-56
2023/06/22 05:31:41;;;;;;;24.13;11.77;;;;;;;;;;5009630;28;20041;-52
2023/06/22 05:34:09;;;;;;;31.05;13.55;;;;;;;;;;5021060;28;20068;-54
2023/06/22 05:36:37;;;;;;;27.95;12.93;;;;;;;;;;5022697;28;20051;-53
2023/06/22 05:39:12;;;;;;;28.30;12.20;;;;;;;;;;5023875;28;20051;-55
2023/06/22 05:41:40;;;;;;;28.80;12.77;;;;;;;;;;5005071;28;20041;-50
2023/06/22 05:44:07;;;;;;;27.58;12.07;;;;;;;;;;5031684;28;20056;-53
2023/06/22 05:46:37;;;;;;;27.00;12.05;;;;;;;;;;5014372;28;20041;-51
2023/06/22 05:49:08;;;;;;;25.52;11.80;;;;;;;;;;5027909;28;20037;-56
2023/06/22 05:51:36;;;;;;;25.17;11.73;;;;;;;;;;5009725;28;20044;-53
2023/06/22 05:54:04;;;;;;;25.95;12.50;;;;;;;;;;5018616;28;20036;-54
2023/06/22 05:56:34;;;;;;;26.75;13.27;;;;;;;;;;5016869;28;20057;-53
2023/06/22 05:59:02;;;;;;;26.73;12.13;;;;;;;;;;5021843;28;20695;-55
2023/06/22 06:01:34;;;;;;;25.15;11.85;;;;;;;;;;5027651;28;20518;-55
2023/06/22 06:04:05;;;;;;;30.07;13.80;;;;;;;;;;5016128;28;20071;-53
2023/06/22 06:06:34;;;;;;;28.27;12.55;;;;;;;;;;5014590;28;20087;-55
2023/06/22 06:09:03;;;;;;;27.55;13.05;;;;;;;;;;5025241;28;20040;-53
2023/06/22 06:11:31;;;;;;;28.63;12.98;;;;;;;;;;5000612;28;20656;-56
2023/06/22 06:13:58;;;;;;;30.17;13.57;;;;;;;;;;5026173;28;20037;-52
2023/06/22 06:16:26;;;;;;;28.40;12.57;;;;;;;;;;5015038;28;20564;-53
2023/06/22 06:18:55;;;;;;;27.55;12.77;;;;;;;;;;5023593;28;20040;-56
2023/06/22 06:21:24;;;;;;;27.40;13.13;;;;;;;;;;5013934;28;20044;-54
2023/06/22 06:23:54;;;;;;;26.05;12.82;;;;;;;;;;4992001;28;20116;-53
2023/06/22 06:26:29;;;;;;;28.38;13.52;;;;;;;;;;5016796;28;20048;-55
2023/06/22 06:28:58;;;;;;;26.10;12.50;;;;;;;;;;5017322;28;20037;-54
2023/06/22 06:31:28;;;;;;;25.70;12.15;;;;;;;;;;5014048;28;20049;-50
2023/06/22 06:33:56;;;;;;;28.65;12.77;;;;;;;;;;5006093;28;20041;-52
2023/06/22 06:36:26;;;;;;;27.85;12.57;;;;;;;;;;5030270;28;20576;-57
2023/06/22 06:38:54;;;;;;;30.08;13.27;;;;;;;;;;5015550;28;20128;-53
2023/06/22 06:41:22;;;;;;;31.63;12.43;;;;;;;;;;5014717;28;20063;-55
2023/06/22 06:43:51;;;;;;;31.65;14.40;;;;;;;;;;4976258;28;1293141;-54
2023/06/22 06:46:19;;;;;;;36.42;14.77;;;;;;;;;;5016323;28;20064;-54
2023/06/22 06:48:47;;;;;;;34.40;14.77;;;;;;;;;;5016428;28;20037;-51
2023/06/22 06:51:16;;;;;;;34.08;14.48;;;;;;;;;;5007474;28;20977;-52
2023/06/22 06:53:45;;;;;;;31.92;12.90;;;;;;;;;;5023296;28;20045;-50
2023/06/22 06:56:12;;;;;;;34.43;14.47;;;;;;;;;;5007363;28;20291;-51
2023/06/22 06:58:41;;;;;;;32.83;12.00;;;;;;;;;;5026373;28;20052;-54
2023/06/22 07:01:09;;;;;;;29.33;12.80;;;;;;;;;;5022074;28;20041;-55
2023/06/22 07:03:37;;;;;;;33.20;12.40;;;;;;;;;;5008050;28;20045;-56
2023/06/22 07:06:05;;;;;;;28.80;13.25;;;;;;;;;;5013557;28;20038;-53
2023/06/22 07:08:33;;;;;;;32.53;12.77;;;;;;;;;;5005401;28;20210;-53
2023/06/22 07:11:02;;;;;;;27.23;11.75;;;;;;;;;;5017330;28;20033;-55
2023/06/22 07:13:30;;;;;;;24.25;12.05;;;;;;;;;;5018257;28;20049;-51
2023/06/22 07:15:57;;;;;;;29.30;12.05;;;;;;;;;;5030772;28;20048;-55
2023/06/22 07:18:26;;;;;;;27.35;12.13;;;;;;;;;;5014123;28;20033;-55
2023/06/22 07:20:54;;;;;;;27.60;11.70;;;;;;;;;;5015156;28;20494;-55
2023/06/22 07:23:22;;;;;;;25.38;11.45;;;;;;;;;;5016730;28;20504;-54
2023/06/22 07:25:50;;;;;;;22.42;10.40;;;;;;;;;;5021636;28;20044;-55
2023/06/22 07:28:22;;;;;;;17.27;7.97;;;;;;;;;;5020286;28;20037;-54
2023/06/22 07:31:07;;;;;;;15.65;6.85;;;;;;;;;;5026304;28;20131;-53
2023/06/22 07:33:35;;;;;;;15.00;7.30;;;;;;;;;;5001779;28;20056;-55
2023/06/22 07:36:07;;;;;;;18.13;7.80;;;;;;;;;;5024619;28;20053;-57
2023/06/22 07:38:35;;;;;;;13.55;6.30;;;;;;;;;;5007552;28;20090;-56
2023/06/22 07:41:05;;;;;;;14.80;6.93;;;;;;;;;;5014690;28;20036;-56
2023/06/22 07:43:36;;;;;;;15.50;7.25;;;;;;;;;;5014647;28;20056;-56
2023/06/22 07:46:05;;;;;;;17.07;7.87;;;;;;;;;;5009030;28;20037;-57
2023/06/22 07:48:33;;;;;;;16.33;7.47;;;;;;;;;;5012785;28;20106;-55
2023/06/22 07:51:00;;;;;;;15.32;7.78;;;;;;;;;;5008795;28;20064;-57
2023/06/22 07:53:28;;;;;;;18.05;7.38;;;;;;;;;;5018863;28;20149;-57
2023/06/22 07:55:56;;;;;;;12.50;6.65;;;;;;;;;;5002413;28;20753;-57
2023/06/22 07:58:24;;;;;;;14.37;6.50;;;;;;;;;;5015558;28;20052;-57
2023/06/22 08:00:53;;;;;;;13.70;7.20;;;;;;;;;;5015168;28;20119;-57
2023/06/22 08:03:21;;;;;;;16.15;7.40;;;;;;;;;;5020869;28;20037;-56
2023/06/22 08:05:49;;;;;;;13.82;7.28;;;;;;;;;;5015087;28;20045;-57
2023/06/22 08:08:18;;;;;;;13.80;7.15;;;;;;;;;;5021391;28;20059;-58
2023/06/22 08:10:48;;;;;;;14.10;7.20;;;;;;;;;;5013297;28;20040;-57
2023/06/22 08:13:15;;;;;;;12.75;6.03;;;;;;;;;;5012535;28;20518;-57
2023/06/22 08:15:43;;;;;;;13.77;6.75;;;;;;;;;;5029066;28;20055;-57
2023/06/22 08:18:12;;;;;;;10.45;5.05;;;;;;;;;;5010240;28;20056;-57
2023/06/22 08:20:40;;;;;;;11.88;6.25;;;;;;;;;;5018944;28;20502;-57
2023/06/22 08:23:08;;;;;;;11.33;5.87;;;;;;;;;;4990631;28;20482;-56
2023/06/22 08:25:38;;;;;;;12.07;6.10;;;;;;;;;;4945531;28;20513;-57
2023/06/22 08:28:10;;;;;;;16.52;6.82;;;;;;;;;;4975405;28;20068;-57
2023/06/22 08:30:37;;;;;;;9.48;4.20;;;;;;;;;;5015765;28;20664;-57
2023/06/22 08:33:05;;;;;;;13.32;6.38;;;;;;;;;;5017940;28;20410;-57
2023/06/22 08:35:34;;;;;;;11.67;4.50;;;;;;;;;;5014323;28;20057;-56
2023/06/22 08:38:03;;;;;;;11.13;5.70;;;;;;;;;;5015767;28;20606;-57
2023/06/22 08:40:30;;;;;;;9.85;5.55;;;;;;;;;;5029717;28;20435;-57
2023/06/22 08:42:58;;;;;;;8.77;4.15;;;;;;;;;;5027588;28;20048;-58
2023/06/22 08:45:26;;;;;;;7.35;4.28;;;;;;;;;;5008579;28;20033;-55
2023/06/22 08:47:57;;;;;;;10.03;5.67;;;;;;;;;;5005951;28;20817;-57
2023/06/22 08:50:24;;;;;;;7.85;3.95;;;;;;;;;;5013758;28;20491;-56
2023/06/22 08:52:54;;;;;;;11.10;5.40;;;;;;;;;;5005459;28;20098;-58
2023/06/22 08:55:25;;;;;;;9.32;4.53;;;;;;;;;;5013062;28;20874;-57
2023/06/22 08:57:53;;;;;;;9.00;4.47;;;;;;;;;;5019595;28;20060;-57
2023/06/22 09:00:21;;;;;;;10.10;4.10;;;;;;;;;;5014161;28;20049;-57
2023/06/22 09:02:49;;;;;;;9.65;4.78;;;;;;;;;;5009181;28;20041;-57
2023/06/22 09:05:18;;;;;;;10.95;4.82;;;;;;;;;;5017914;28;20120;-56
2023/06/22 09:07:45;;;;;;;8.57;4.72;;;;;;;;;;5018951;28;20827;-57
2023/06/22 09:10:15;;;;;;;9.15;4.80;;;;;;;;;;5011425;28;20086;-57
2023/06/22 09:12:43;;;;;;;11.87;5.27;;;;;;;;;;5018342;28;20041;-57
2023/06/22 09:15:11;;;;;;;9.90;4.88;;;;;;;;;;5015651;28;20518;-56
2023/06/22 09:17:46;;;;;;;9.48;4.57;;;;;;;;;;5022359;28;20072;-56
2023/06/22 09:20:15;;;;;;;9.30;4.55;;;;;;;;;;5014464;28;20083;-57
2023/06/22 09:22:44;;;;;;;11.10;4.80;;;;;;;;;;5023212;28;20045;-56
2023/06/22 09:25:14;;;;;;;9.87;4.90;;;;;;;;;;4997617;28;20128;-57
2023/06/22 09:27:43;;;;;;;9.40;4.43;;;;;;;;;;5011625;28;20404;-55
2023/06/22 09:30:11;;;;;;;9.63;4.22;;;;;;;;;;5008759;28;20060;-56
2023/06/22 09:32:39;;;;;;;11.57;3.90;;;;;;;;;;5013321;28;20052;-54
2023/06/22 09:35:08;;;;;;;9.02;4.30;;;;;;;;;;5008004;28;20885;-53
2023/06/22 09:37:36;;;;;;;9.13;4.63;;;;;;;;;;5021666;28;20056;-56
2023/06/22 09:40:08;;;;;;;8.50;4.60;;;;;;;;;;5018117;28;20040;-56
2023/06/22 09:42:36;;;;;;;10.52;4.07;;;;;;;;;;5018935;28;20036;-55
2023/06/22 09:45:06;;;;;;;6.95;3.60;;;;;;;;;;5010656;28;20084;-56
2023/06/22 09:47:34;;;;;;;9.35;4.30;;;;;;;;;;5026662;28;20047;-53
2023/06/22 09:50:07;;;;;;;8.80;4.17;;;;;;;;;;5009388;28;20430;-56
2023/06/22 09:52:34;;;;;;;8.73;4.50;;;;;;;;;;5010757;28;20214;-56
2023/06/22 09:55:15;;;;;;;9.05;4.18;;;;;;;;;;5004635;28;20132;-57
2023/06/22 09:57:44;;;;;;;8.55;3.75;;;;;;;;;;5023186;28;20044;-57
2023/06/22 10:00:15;;;;;;;10.52;4.65;;;;;;;;;;5012287;28;20033;-57
2023/06/22 10:02:43;;;;;;;8.37;3.50;;;;;;;;;;5012264;28;20135;-56
2023/06/22 10:05:12;;;;;;;11.13;4.07;;;;;;;;;;5012283;28;20082;-55
2023/06/22 10:07:43;;;;;;;10.15;4.05;;;;;;;;;;5020657;28;20081;-55
2023/06/22 10:10:10;;;;;;;7.72;4.05;;;;;;;;;;5018854;28;20041;-57
2023/06/22 10:12:42;;;;;;;11.38;3.95;;;;;;;;;;5028706;28;20134;-57
2023/06/22 10:15:10;;;;;;;7.63;4.00;;;;;;;;;;5007951;28;20812;-57
2023/06/22 10:17:40;;;;;;;6.03;3.10;;;;;;;;;;5027370;28;20122;-57
2023/06/22 10:20:11;;;;;;;9.98;3.03;;;;;;;;;;5015122;28;20491;-58
2023/06/22 10:22:40;;;;;;;7.78;4.00;;;;;;;;;;5017925;28;20048;-57
2023/06/22 10:25:15;;;;;;;7.18;3.20;;;;;;;;;;5016754;28;20740;-57
2023/06/22 10:27:43;;;;;;;7.07;3.20;;;;;;;;;;5019584;28;20033;-58
2023/06/22 10:30:12;;;;;;;7.95;3.70;;;;;;;;;;5016088;28;20124;-56
2023/06/22 10:32:43;;;;;;;9.55;3.70;;;;;;;;;;5028611;28;20618;-55
2023/06/22 10:35:13;;;;;;;7.15;3.45;;;;;;;;;;5004909;28;21183;-56
2023/06/22 10:37:42;;;;;;;8.18;3.97;;;;;;;;;;5028410;28;20530;-58
2023/06/22 10:40:11;;;;;;;7.33;3.43;;;;;;;;;;5011193;28;20053;-57
2023/06/22 10:42:39;;;;;;;8.10;3.78;;;;;;;;;;5013210;28;20041;-58
2023/06/22 10:45:07;;;;;;;7.53;3.67;;;;;;;;;;5014010;28;20052;-57
2023/06/22 10:47:35;;;;;;;6.60;3.65;;;;;;;;;;5013414;28;20048;-57
2023/06/22 10:50:05;;;;;;;7.93;3.33;;;;;;;;;;5007695;28;20041;-57
2023/06/22 10:52:33;;;;;;;8.07;3.70;;;;;;;;;;5030953;28;20419;-57
2023/06/22 10:55:03;;;;;;;7.22;3.63;;;;;;;;;;5024768;28;20098;-57
2023/06/22 10:57:30;;;;;;;6.75;3.33;;;;;;;;;;5021206;28;20063;-58
2023/06/22 10:59:58;;;;;;;7.72;3.05;;;;;;;;;;5009237;28;20041;-57
2023/06/22 11:02:28;;;;;;;6.30;3.42;;;;;;;;;;5030453;28;20756;-56
2023/06/22 11:04:56;;;;;;;6.07;3.13;;;;;;;;;;5018528;28;20507;-57
2023/06/22 11:07:26;;;;;;;8.00;3.78;;;;;;;;;;5021174;28;20422;-57
2023/06/22 11:09:54;;;;;;;7.53;3.35;;;;;;;;;;5014617;28;20365;-57
2023/06/22 11:12:22;;;;;;;6.93;3.47;;;;;;;;;;5018600;28;20044;-56
2023/06/22 11:14:51;;;;;;;8.20;3.67;;;;;;;;;;5006700;28;20072;-57
2023/06/22 11:17:19;;;;;;;8.77;4.23;;;;;;;;;;5015916;28;20112;-57
2023/06/22 11:19:47;;;;;;;10.40;3.80;;;;;;;;;;5020245;28;20411;-57
2023/06/22 11:22:15;;;;;;;8.60;3.30;;;;;;;;;;5009828;28;20776;-58
2023/06/22 11:24:44;;;;;;;7.25;4.00;;;;;;;;;;5026583;28;20614;-55
2023/06/22 11:27:12;;;;;;;7.82;3.70;;;;;;;;;;5007387;28;20034;-56
2023/06/22 11:29:40;;;;;;;7.57;3.37;;;;;;;;;;5025956;28;20040;-56
2023/06/22 11:32:08;;;;;;;8.07;3.83;;;;;;;;;;5005501;28;20034;-55
2023/06/22 11:34:38;;;;;;;8.63;3.00;;;;;;;;;;5027646;28;20049;-56
2023/06/22 11:37:07;;;;;;;7.72;3.38;;;;;;;;;;5000794;28;20116;-56
2023/06/22 11:39:34;;;;;;;7.38;3.38;;;;;;;;;;5015297;28;20045;-56
2023/06/22 11:42:17;;;;;;;8.17;3.47;;;;;;;;;;5016311;28;20495;-54
2023/06/22 11:44:44;;;;;;;6.60;3.30;;;;;;;;;;5010052;28;20065;-56
2023/06/22 11:47:12;;;;;;;9.20;3.13;;;;;;;;;;5014312;28;20048;-55
2023/06/22 11:49:40;;;;;;;6.50;3.40;;;;;;;;;;5017776;28;20131;-56
2023/06/22 11:52:08;;;;;;;7.18;3.20;;;;;;;;;;4995639;28;20056;-57
2023/06/22 11:54:36;;;;;;;7.13;3.53;;;;;;;;;;5020788;28;20048;-56
2023/06/22 11:57:05;;;;;;;6.55;3.17;;;;;;;;;;5006970;28;20041;-57
2023/06/22 11:59:34;;;;;;;6.20;3.05;;;;;;;;;;5027759;28;20120;-56
2023/06/22 12:02:02;;;;;;;7.30;3.30;;;;;;;;;;5017105;28;20041;-56
2023/06/22 12:04:29;;;;;;;7.43;3.65;;;;;;;;;;5011954;28;20044;-54
2023/06/22 12:06:58;;;;;;;6.50;3.53;;;;;;;;;;5011150;28;20595;-57
2023/06/22 12:09:26;;;;;;;6.93;3.22;;;;;;;;;;5024952;28;20458;-58
2023/06/22 12:11:54;;;;;;;6.45;3.83;;;;;;;;;;5010101;28;20379;-57
2023/06/22 12:14:22;;;;;;;6.65;3.25;;;;;;;;;;5020002;28;20068;-56
2023/06/22 12:16:51;;;;;;;6.68;3.92;;;;;;;;;;5013046;28;20586;-56
2023/06/22 12:19:19;;;;;;;8.17;3.43;;;;;;;;;;5022382;28;20062;-58
2023/06/22 12:21:47;;;;;;;8.38;3.53;;;;;;;;;;5020708;28;20041;-57
2023/06/22 12:24:15;;;;;;;8.73;3.67;;;;;;;;;;4983590;28;20041;-57
2023/06/22 12:26:43;;;;;;;7.20;4.00;;;;;;;;;;5004849;28;20120;-58
2023/06/22 12:29:12;;;;;;;8.52;4.15;;;;;;;;;;5014790;28;20045;-57
2023/06/22 12:31:41;;;;;;;10.60;3.57;;;;;;;;;;5010954;28;20041;-51
2023/06/22 12:34:10;;;;;;;8.38;3.45;;;;;;;;;;5022363;28;20040;-56
2023/06/22 12:36:38;;;;;;;7.82;3.15;;;;;;;;;;5015500;28;20359;-56
2023/06/22 12:39:06;;;;;;;6.75;3.42;;;;;;;;;;5023122;28;20091;-56
2023/06/22 12:41:34;;;;;;;8.43;3.20;;;;;;;;;;5005320;28;20898;-56
2023/06/22 12:44:02;;;;;;;8.40;4.00;;;;;;;;;;5013652;28;20132;-56
2023/06/22 12:46:30;;;;;;;9.10;3.90;;;;;;;;;;5006185;28;20044;-56
2023/06/22 12:49:00;;;;;;;7.25;3.70;;;;;;;;;;5023494;28;20045;-55
2023/06/22 12:51:29;;;;;;;6.43;3.15;;;;;;;;;;5018105;28;20040;-57
2023/06/22 12:53:57;;;;;;;6.65;3.50;;;;;;;;;;5019771;28;20049;-57
2023/06/22 12:56:26;;;;;;;8.93;3.53;;;;;;;;;;5004593;28;20037;-55
2023/06/22 12:58:53;;;;;;;7.85;3.67;;;;;;;;;;5005958;28;20049;-55
2023/06/22 13:01:22;;;;;;;7.32;3.45;;;;;;;;;;5011476;28;20124;-56
2023/06/22 13:03:51;;;;;;;10.38;4.40;;;;;;;;;;4960845;28;21058;-56
2023/06/22 13:06:18;;;;;;;7.53;4.00;;;;;;;;;;4994683;28;20029;-55
2023/06/22 13:08:47;;;;;;;7.50;3.13;;;;;;;;;;5025615;28;20098;-55
2023/06/22 13:11:18;;;;;;;7.53;3.30;;;;;;;;;;5000696;28;20576;-56
2023/06/22 13:13:46;;;;;;;7.15;3.40;;;;;;;;;;5013647;28;20090;-56
2023/06/22 13:16:14;;;;;;;7.72;3.72;;;;;;;;;;5024396;28;20044;-56
2023/06/22 13:18:42;;;;;;;7.47;3.75;;;;;;;;;;5012343;28;20037;-56
2023/06/22 13:21:10;;;;;;;9.30;3.77;;;;;;;;;;5007105;28;20033;-56
2023/06/22 13:23:38;;;;;;;7.53;3.92;;;;;;;;;;5022673;28;20048;-57
2023/06/22 13:26:08;;;;;;;11.27;3.75;;;;;;;;;;5014406;28;20123;-57
2023/06/22 13:28:36;;;;;;;6.68;3.60;;;;;;;;;;5019888;28;20116;-56
2023/06/22 13:31:04;;;;;;;7.70;3.78;;;;;;;;;;5021210;28;20045;-57
2023/06/22 13:33:32;;;;;;;7.87;3.40;;;;;;;;;;5014757;28;20069;-55
2023/06/22 13:36:00;;;;;;;7.15;3.42;;;;;;;;;;5025959;28;20076;-56
2023/06/22 13:38:28;;;;;;;13.07;3.50;;;;;;;;;;5013112;28;20516;-52
2023/06/22 13:40:58;;;;;;;6.45;3.03;;;;;;;;;;4999509;28;20045;-57
2023/06/22 13:43:27;;;;;;;6.65;3.30;;;;;;;;;;5013296;28;20047;-57
2023/06/22 13:45:55;;;;;;;7.17;2.97;;;;;;;;;;4997374;28;20511;-57
2023/06/22 13:48:23;;;;;;;6.35;2.90;;;;;;;;;;5017679;28;20041;-57
2023/06/22 13:50:51;;;;;;;6.20;2.95;;;;;;;;;;5016043;28;21569;-58
2023/06/22 13:53:19;;;;;;;6.43;3.35;;;;;;;;;;5020220;28;20044;-58
2023/06/22 13:55:47;;;;;;;7.43;3.35;;;;;;;;;;5014194;28;20132;-58
2023/06/22 13:58:15;;;;;;;7.33;3.43;;;;;;;;;;5024981;28;20069;-57
2023/06/22 14:00:44;;;;;;;8.80;3.17;;;;;;;;;;5019682;28;20049;-57
2023/06/22 14:03:15;;;;;;;5.85;3.00;;;;;;;;;;5019802;28;20278;-57
2023/06/22 14:05:43;;;;;;;6.65;3.45;;;;;;;;;;5011984;28;20148;-58
2023/06/22 14:08:11;;;;;;;8.32;3.58;;;;;;;;;;5005454;28;20091;-58
2023/06/22 14:10:59;;;;;;;7.97;3.27;;;;;;;;;;5013032;28;20053;-59
2023/06/22 14:13:27;;;;;;;6.72;3.30;;;;;;;;;;5010047;28;20519;-57
2023/06/22 14:15:56;;;;;;;5.80;3.10;;;;;;;;;;5013100;28;20033;-57
2023/06/22 14:18:23;;;;;;;7.03;3.60;;;;;;;;;;5015907;28;20044;-57
2023/06/22 14:20:51;;;;;;;6.43;3.45;;;;;;;;;;5005057;28;20049;-57
2023/06/22 14:23:19;;;;;;;8.27;3.17;;;;;;;;;;5016971;28;20045;-57
2023/06/22 14:25:46;;;;;;;6.20;2.58;;;;;;;;;;4990098;28;20049;-58
2023/06/22 14:28:16;;;;;;;5.65;2.90;;;;;;;;;;5010529;28;20403;-58
2023/06/22 14:30:44;;;;;;;6.50;3.00;;;;;;;;;;5012210;28;20049;-57
2023/06/22 14:33:17;;;;;;;6.32;3.28;;;;;;;;;;5024159;28;20041;-59
2023/06/22 14:35:45;;;;;;;6.53;3.13;;;;;;;;;;5031427;28;20044;-58
2023/06/22 14:38:13;;;;;;;7.15;3.15;;;;;;;;;;5018368;28;20060;-58
2023/06/22 14:40:40;;;;;;;7.20;2.83;;;;;;;;;;5020780;28;20053;-57